Time;durP1;ratioP1;P1;durP2;ratioP2;P2;SDS_P1;SDS_P2;PMS_P1;PMS_P2;Temp;Humidity;BMP_temperature;BMP_pressure;BME280_temperature;BME280_humidity;BME280_pressure;Samples;Min_cycle;Max_cycle;Signal;HPM_P1;HPM_P2
2022/05/06 00:03:12;;;;;;;10.37;6.10;;;;;;;17.93;62.24;97164.59;10489937;28;20041;-23
2022/05/06 00:08:13;;;;;;;8.93;6.10;;;;;;;17.89;59.28;97165.38;10499194;28;20032;-23
2022/05/06 00:13:14;;;;;;;7.30;5.13;;;;;;;17.88;57.72;97166.22;10540370;28;20040;-23
2022/05/06 00:18:14;;;;;;;7.73;4.63;;;;;;;17.76;57.39;97149.22;10519743;28;20036;-24
2022/05/06 00:23:15;;;;;;;7.33;4.70;;;;;;;17.84;57.31;97159.44;10513676;28;20044;-23
2022/05/06 00:28:15;;;;;;;5.47;4.33;;;;;;;17.82;57.35;97156.06;10497899;28;20194;-23
2022/05/06 00:33:15;;;;;;;6.77;4.73;;;;;;;17.81;57.19;97152.66;10511882;28;20174;-25
2022/05/06 00:38:16;;;;;;;8.55;4.72;;;;;;;17.81;57.35;97159.41;10530605;28;20357;-24
2022/05/06 00:43:18;;;;;;;5.90;4.00;;;;;;;17.79;57.11;97151.81;10497571;28;20028;-23
2022/05/06 00:48:22;;;;;;;7.63;4.78;;;;;;;17.72;57.12;97128.94;10497022;28;20268;-24
2022/05/06 00:53:22;;;;;;;6.43;4.88;;;;;;;17.80;57.11;97145.03;10504975;28;20043;-23
2022/05/06 00:58:29;;;;;;;10.48;6.10;;;;;;;17.84;61.13;97146.78;10539024;28;20039;-23
2022/05/06 01:03:30;;;;;;;8.68;6.38;;;;;;;17.87;62.41;97142.59;10515057;28;20498;-25
2022/05/06 01:08:31;;;;;;;11.30;6.43;;;;;;;17.88;62.03;97141.75;10504858;28;20032;-24
2022/05/06 01:13:43;;;;;;;8.27;5.70;;;;;;;17.84;58.22;97129.88;10538070;28;20124;-24
2022/05/06 01:18:44;;;;;;;7.47;4.82;;;;;;;17.83;57.51;97137.50;10503291;28;20034;-24
2022/05/06 01:23:45;;;;;;;6.97;4.37;;;;;;;17.82;57.64;97145.94;10511704;28;20041;-23
2022/05/06 01:28:45;;;;;;;8.07;4.82;;;;;;;17.72;57.47;97122.19;10495679;28;20033;-23
2022/05/06 01:33:54;;;;;;;7.68;5.25;;;;;;;17.80;57.43;97137.44;10511939;28;20110;-23
2022/05/06 01:39:00;;;;;;;9.48;4.78;;;;;;;17.80;57.47;97137.44;10523680;28;20055;-23
2022/05/06 01:44:05;;;;;;;6.90;4.70;;;;;;;17.79;57.37;97136.63;10493761;28;20078;-23
2022/05/06 01:49:08;;;;;;;5.15;3.90;;;;;;;17.78;57.32;97134.06;10493074;28;20115;-23
2022/05/06 01:54:09;;;;;;;6.78;4.18;;;;;;;17.72;57.19;97123.84;10494904;28;20045;-24
2022/05/06 01:59:12;;;;;;;7.07;4.82;;;;;;;17.79;57.43;97135.75;10493958;28;20039;-24
2022/05/06 02:09:32;;;;;;;9.68;6.47;;;;;;;17.88;62.33;97136.69;10493163;28;20024;-24
2022/05/06 02:14:39;;;;;;;9.20;5.20;;;;;;;17.91;59.67;97126.56;10493163;28;20094;-23
2022/05/06 02:19:58;;;;;;;8.02;4.85;;;;;;;17.92;58.29;97122.38;10494049;28;20449;-24
2022/05/06 02:25:27;;;;;;;5.45;3.92;;;;;;;17.90;58.13;97129.94;10492467;28;20074;-23
2022/05/06 02:36:11;;;;;;;6.15;3.90;;;;;;;17.88;57.93;97126.56;10491236;28;20112;-23
2022/05/06 02:41:14;;;;;;;8.20;4.47;;;;;;;17.89;57.53;97123.19;10524284;28;20505;-24
2022/05/06 02:46:20;;;;;;;6.18;4.72;;;;;;;17.90;57.34;97124.88;10526290;28;20482;-24
2022/05/06 02:51:21;;;;;;;6.43;4.00;;;;;;;17.86;57.28;97117.25;10491378;28;20044;-24
2022/05/06 02:56:23;;;;;;;5.85;4.60;;;;;;;17.85;57.17;97113.03;10490940;28;20147;-23
2022/05/06 03:01:28;;;;;;;5.60;4.18;;;;;;;17.87;57.25;97113.88;10491261;28;20028;-23
2022/05/06 03:06:31;;;;;;;11.80;5.20;;;;;;;17.88;61.24;97116.44;10490483;28;20464;-25
2022/05/06 03:11:31;;;;;;;9.80;5.35;;;;;;;17.88;62.34;97116.44;10525441;28;20028;-24
2022/05/06 03:16:38;;;;;;;5.40;3.97;;;;;;;17.88;58.73;97120.63;10527219;28;20021;-23
2022/05/06 03:21:39;;;;;;;6.00;4.70;;;;;;;17.89;57.81;97120.66;10502535;28;20389;-23
2022/05/06 03:26:39;;;;;;;5.80;3.78;;;;;;;17.88;57.43;97116.44;10532122;28;20394;-24
2022/05/06 03:31:40;;;;;;;6.17;4.17;;;;;;;17.85;57.56;97102.88;10533302;28;20043;-22
2022/05/06 03:36:44;;;;;;;6.03;4.63;;;;;;;17.85;57.50;97106.28;10493628;28;20031;-23
2022/05/06 03:41:48;;;;;;;5.53;4.13;;;;;;;17.86;57.80;97110.50;10510591;28;20043;-23
2022/05/06 03:46:49;;;;;;;5.20;4.05;;;;;;;17.86;57.75;97112.19;10527901;28;20028;-23
2022/05/06 03:51:56;;;;;;;5.47;3.78;;;;;;;17.85;57.65;97111.34;10509342;28;20047;-24
2022/05/06 03:56:57;;;;;;;6.43;3.80;;;;;;;17.86;57.03;97117.25;10516934;28;20031;-25
2022/05/06 04:01:58;;;;;;;5.43;3.70;;;;;;;17.88;58.07;97113.03;10531327;28;20490;-25
2022/05/06 04:07:03;;;;;;;5.85;4.35;;;;;;;17.88;58.60;97113.03;10519957;28;20028;-25
2022/05/06 04:12:07;;;;;;;6.65;4.57;;;;;;;17.92;60.45;97113.06;10490547;28;20067;-23
2022/05/06 04:17:12;;;;;;;8.35;4.90;;;;;;;17.94;60.75;97120.69;10488531;28;20040;-24
2022/05/06 04:27:40;;;;;;;5.47;3.43;;;;;;;17.96;58.53;97131.69;10523451;28;20040;-23
2022/05/06 04:32:41;;;;;;;5.75;3.92;;;;;;;17.95;58.13;97127.47;10570128;28;20039;-24
2022/05/06 04:37:45;;;;;;;7.60;4.03;;;;;;;17.95;57.95;97138.44;10556473;28;20021;-23
2022/05/06 04:42:47;;;;;;;7.95;3.97;;;;;;;17.97;57.56;97139.31;10488274;28;20038;-23
2022/05/06 04:47:50;;;;;;;6.95;3.92;;;;;;;17.95;57.41;97137.59;10488095;28;20406;-24
2022/05/06 04:52:52;;;;;;;6.38;4.18;;;;;;;17.97;57.99;97135.91;10487689;28;20033;-24
2022/05/06 04:57:53;;;;;;;5.57;4.43;;;;;;;17.78;57.94;97108.72;10495390;28;20445;-23
2022/05/06 05:02:55;;;;;;;6.63;4.07;;;;;;;17.92;57.80;97135.03;10495176;28;20025;-23
2022/05/06 05:07:56;;;;;;;9.00;4.20;;;;;;;17.92;57.84;97145.19;10521832;28;20103;-22
2022/05/06 05:12:56;;;;;;;24.10;7.53;;;;;;;17.96;60.62;97149.41;10534595;28;20134;-23
2022/05/06 05:18:02;;;;;;;15.65;6.55;;;;;;;17.99;61.00;97144.41;10509231;28;20059;-23
2022/05/06 05:23:02;;;;;;;11.27;4.97;;;;;;;17.98;58.15;97147.78;10506249;28;20055;-23
2022/05/06 05:28:05;;;;;;;9.07;4.72;;;;;;;17.96;57.87;97155.34;10536218;28;20032;-23
2022/05/06 05:33:10;;;;;;;7.03;4.28;;;;;;;17.97;57.50;97140.97;10508791;28;20039;-24
2022/05/06 05:38:18;;;;;;;15.60;5.57;;;;;;;17.94;57.68;97148.56;10500970;28;20089;-25
2022/05/06 05:48:42;;;;;;;14.13;7.25;;;;;;;17.74;59.15;97139.94;10491944;28;20444;-23
2022/05/06 05:53:42;;;;;;;11.20;5.45;;;;;;;17.88;58.47;97145.97;10493924;28;20045;-24
2022/05/06 05:58:45;;;;;;;12.10;6.25;;;;;;;17.89;59.27;97152.72;10494043;28;20275;-24
2022/05/06 06:03:49;;;;;;;8.45;5.65;;;;;;;17.88;57.76;97151.88;10493029;28;20029;-23
2022/05/06 06:08:50;;;;;;;5.28;4.25;;;;;;;17.87;57.53;97145.13;10493114;28;20028;-24
2022/05/06 06:13:50;;;;;;;14.20;6.40;;;;;;;17.87;60.56;97151.88;10493985;28;20044;-22
2022/05/06 06:18:58;;;;;;;9.32;5.05;;;;;;;17.91;60.83;97146.00;10492772;28;20468;-23
2022/05/06 06:23:59;;;;;;;11.18;4.95;;;;;;;17.91;60.71;97153.63;10533108;28;20043;-23
2022/05/06 06:28:59;;;;;;;7.13;4.55;;;;;;;17.90;60.04;97155.28;10534541;28;20035;-23
2022/05/06 06:34:00;;;;;;;10.38;5.28;;;;;;;17.88;58.71;97161.16;10515815;28;20417;-25
2022/05/06 06:39:05;;;;;;;9.83;4.73;;;;;;;17.89;58.65;97152.72;10491921;28;20032;-22
2022/05/06 06:44:10;;;;;;;9.73;4.28;;;;;;;17.86;58.97;97156.09;10491937;28;20041;-23
2022/05/06 06:49:25;;;;;;;8.95;4.28;;;;;;;17.87;57.86;97169.59;10491731;28;20032;-24
2022/05/06 06:54:33;;;;;;;5.90;4.00;;;;;;;17.88;59.07;97168.75;10491162;28;20116;-23
2022/05/06 06:59:34;;;;;;;6.07;4.13;;;;;;;17.86;58.39;97172.97;10492503;28;20431;-24
2022/05/06 07:04:35;;;;;;;8.30;4.13;;;;;;;17.86;57.65;97168.78;10514057;28;20031;-23
2022/05/06 07:14:55;;;;;;;5.68;3.65;;;;;;;17.86;58.92;97168.78;10492403;28;20036;-24
2022/05/06 07:19:55;;;;;;;8.30;4.15;;;;;;;17.89;60.63;97165.38;10517080;28;20397;-25
2022/05/06 07:24:55;;;;;;;7.00;4.37;;;;;;;17.92;60.67;97165.44;10516158;28;20044;-24
2022/05/06 07:29:56;;;;;;;6.00;4.30;;;;;;;17.91;60.12;97168.81;10533507;28;20040;-24
2022/05/06 07:34:56;;;;;;;6.50;3.67;;;;;;;17.87;58.85;97160.34;10508692;28;20032;-24
2022/05/06 07:39:57;;;;;;;10.60;4.20;;;;;;;17.88;58.55;97156.09;10513077;28;20032;-24
2022/05/06 07:45:00;;;;;;;8.43;4.50;;;;;;;17.88;58.30;97163.69;10532487;28;20055;-23
2022/05/06 07:50:01;;;;;;;5.13;3.55;;;;;;;17.87;57.94;97154.41;10502564;28;20043;-24
2022/05/06 07:55:02;;;;;;;7.85;3.63;;;;;;;17.88;57.43;97161.16;10491072;28;20037;-25
2022/05/06 08:00:04;;;;;;;5.53;3.15;;;;;;;17.86;57.55;97160.31;10491230;28;20338;-24
2022/05/06 08:05:12;;;;;;;5.72;3.60;;;;;;;17.87;58.24;97162.88;10490617;28;20043;-24
2022/05/06 08:10:14;;;;;;;5.47;3.35;;;;;;;17.86;57.52;97157.78;10490290;28;20037;-23
2022/05/06 08:15:14;;;;;;;6.30;3.60;;;;;;;17.85;58.09;97161.16;10490121;28;20506;-23
2022/05/06 08:20:15;;;;;;;5.53;4.30;;;;;;;17.89;60.07;97167.91;10490233;28;20033;-23
2022/05/06 08:25:16;;;;;;;6.25;3.95;;;;;;;17.86;60.66;97167.91;10505817;28;20040;-23
2022/05/06 08:30:16;;;;;;;4.95;3.45;;;;;;;17.92;60.35;97171.34;10493290;28;20097;-23
2022/05/06 08:35:18;;;;;;;4.95;3.42;;;;;;;17.90;58.88;97169.66;10497698;28;20037;-23
2022/05/06 08:40:23;;;;;;;4.63;2.67;;;;;;;17.88;58.09;97171.28;10498058;28;20043;-24
2022/05/06 08:50:55;;;;;;;5.88;3.33;;;;;;;17.80;58.16;97167.84;10535771;28;20043;-26
2022/05/06 08:55:58;;;;;;;6.82;2.90;;;;;;;17.86;57.17;97180.56;10509189;28;20514;-22
2022/05/06 09:01:08;;;;;;;3.38;2.58;;;;;;;17.87;56.97;97174.66;10497107;28;20375;-23
2022/05/06 09:06:26;;;;;;;3.67;2.95;;;;;;;17.87;57.55;97183.13;10496954;28;20517;-23
2022/05/06 09:16:50;;;;;;;4.07;3.25;;;;;;;17.84;57.49;97187.31;10496806;28;20036;-24
2022/05/06 09:22:09;;;;;;;4.97;3.08;;;;;;;17.87;60.03;97189.88;10508379;28;20076;-23
2022/05/06 09:27:09;;;;;;;5.32;3.53;;;;;;;17.71;60.76;97158.47;10496789;28;20093;-23
2022/05/06 09:32:32;;;;;;;6.87;4.07;;;;;;;17.92;60.48;97198.38;10495648;28;20456;-24
2022/05/06 09:37:38;;;;;;;3.97;3.17;;;;;;;17.89;58.41;97194.13;10495132;28;20422;-23
2022/05/06 09:42:43;;;;;;;3.88;2.63;;;;;;;17.89;57.68;97194.13;10494783;28;20033;-23
2022/05/06 09:47:56;;;;;;;4.70;3.42;;;;;;;17.88;57.62;97196.63;10495419;28;20033;-23
2022/05/06 09:53:01;;;;;;;3.83;2.95;;;;;;;17.88;57.36;97196.63;10499355;28;20036;-23
2022/05/06 09:58:02;;;;;;;3.83;3.42;;;;;;;17.88;57.76;97191.56;10536677;28;20384;-24
2022/05/06 10:03:03;;;;;;;4.10;2.85;;;;;;;17.88;57.46;97192.41;10521680;28;20044;-23
2022/05/06 10:08:12;;;;;;;3.75;2.83;;;;;;;17.88;57.51;97196.63;10494698;28;20028;-23
2022/05/06 10:13:19;;;;;;;4.47;2.97;;;;;;;17.87;57.37;97192.41;10494933;28;20032;-24
2022/05/06 10:18:42;;;;;;;4.68;2.80;;;;;;;17.89;57.47;97198.31;10494884;28;20112;-23
2022/05/06 10:23:56;;;;;;;4.20;3.67;;;;;;;17.88;59.33;97187.34;10492277;28;20043;-23
2022/05/06 10:34:16;;;;;;;5.32;3.28;;;;;;;17.95;60.68;97194.19;10493412;28;20514;-23
2022/05/06 10:39:19;;;;;;;3.90;3.22;;;;;;;17.93;59.05;97192.47;10493989;28;20477;-23
2022/05/06 10:44:41;;;;;;;8.98;6.13;;;;;;;17.91;60.49;97186.53;10493274;28;20036;-23
2022/05/06 10:49:46;;;;;;;6.53;3.30;;;;;;;17.89;57.63;97183.13;10492783;28;20028;-24
2022/05/06 10:54:47;;;;;;;4.93;3.38;;;;;;;17.89;57.43;97183.13;10491805;28;20041;-23
2022/05/06 10:59:56;;;;;;;3.40;2.70;;;;;;;17.88;57.14;97187.34;10492577;28;20037;-23
2022/05/06 11:04:57;;;;;;;4.25;2.70;;;;;;;17.89;57.12;97188.19;10529513;28;20471;-24
2022/05/06 11:09:58;;;;;;;3.60;2.63;;;;;;;17.85;56.92;97186.47;10511344;28;20064;-23
2022/05/06 11:14:58;;;;;;;5.65;3.65;;;;;;;17.88;57.11;97189.03;10492493;28;20475;-23
2022/05/06 11:20:05;;;;;;;4.43;3.40;;;;;;;17.87;57.03;97190.72;10491962;28;20021;-23
2022/05/06 11:25:05;;;;;;;;;;;;;;;17.86;57.07;97186.50;10529822;28;20206;-24
2022/05/06 11:30:07;;;;;;;6.90;5.05;;;;;;;17.91;61.38;97179.78;10533077;28;20409;-25
2022/05/06 11:35:14;;;;;;;13.57;5.68;;;;;;;18.00;61.72;97173.97;10505915;28;20476;-24
2022/05/06 11:50:56;;;;;;;3.80;2.50;;;;;;;17.91;57.39;97172.19;10491834;28;20131;-24
2022/05/06 11:55:57;;;;;;;5.30;2.90;;;;;;;17.90;57.37;97170.47;10501928;28;20105;-23
2022/05/06 12:00:57;;;;;;;4.88;3.05;;;;;;;17.89;57.26;97162.84;10490874;28;20029;-24
2022/05/06 12:06:01;;;;;;;7.63;3.38;;;;;;;17.89;57.90;97156.13;10527837;28;20147;-23
2022/05/06 12:11:06;;;;;;;3.85;2.85;;;;;;;17.88;57.22;97154.44;10530647;28;20060;-24
2022/05/06 12:16:09;;;;;;;7.32;3.67;;;;;;;17.88;57.39;97140.91;10540799;28;20054;-24
2022/05/06 12:21:18;;;;;;;4.63;3.38;;;;;;;17.86;57.21;97145.09;10511481;28;20402;-23
2022/05/06 12:26:37;;;;;;;4.32;2.72;;;;;;;17.84;57.15;97139.19;10521978;28;20120;-23
2022/05/06 12:31:38;;;;;;;16.27;5.35;;;;;;;17.87;61.14;97141.75;10495012;28;20494;-24
2022/05/06 12:36:38;;;;;;;8.77;5.47;;;;;;;17.99;62.00;97159.59;10495039;28;20187;-23
2022/05/06 12:41:39;;;;;;;23.60;4.28;;;;;;;17.83;59.70;97148.47;10497291;28;20040;-23
2022/05/06 12:46:41;;;;;;;20.27;4.47;;;;;;;17.91;58.82;97167.09;10497809;28;20090;-24
2022/05/06 12:51:42;;;;;;;8.98;3.00;;;;;;;17.89;58.09;97162.84;10497624;28;20777;-23
2022/05/06 12:56:43;;;;;;;5.07;2.65;;;;;;;17.87;57.45;97155.25;10496456;28;20093;-22
2022/05/06 13:01:44;;;;;;;9.70;3.00;;;;;;;17.84;57.69;97149.31;10497082;28;20286;-23
2022/05/06 13:06:44;;;;;;;7.37;3.50;;;;;;;17.85;57.32;97166.22;10496012;28;20509;-23
2022/05/06 13:11:45;;;;;;;6.78;3.28;;;;;;;17.84;57.53;97164.50;10533053;28;20296;-23
2022/05/06 13:16:45;;;;;;;6.40;4.00;;;;;;;17.84;57.61;97164.50;10530224;28;20036;-23
2022/05/06 13:21:46;;;;;;;5.37;2.80;;;;;;;17.88;57.29;97161.16;10508226;28;20119;-24
2022/05/06 13:26:47;;;;;;;5.47;3.05;;;;;;;17.90;57.19;97157.81;10500348;28;20044;-23
2022/05/06 13:31:47;;;;;;;7.18;3.05;;;;;;;17.88;57.31;97151.03;10496265;28;20101;-24
2022/05/06 13:36:48;;;;;;;15.70;4.88;;;;;;;17.98;61.84;97152.84;10496140;28;20618;-24
2022/05/06 13:41:48;;;;;;;10.77;4.40;;;;;;;18.01;61.97;97138.47;10531940;28;20137;-25
2022/05/06 13:46:51;;;;;;;7.70;4.37;;;;;;;17.95;58.51;97132.53;10518908;28;20032;-25
2022/05/06 13:51:51;;;;;;;11.45;3.72;;;;;;;17.91;58.27;97133.34;10495478;28;20067;-24
2022/05/06 14:02:10;;;;;;;12.57;3.70;;;;;;;17.91;57.44;97141.78;10536440;28;20281;-24
2022/05/06 14:07:10;;;;;;;5.17;3.10;;;;;;;17.93;57.39;97136.72;10515189;28;20035;-24
2022/05/06 14:12:11;;;;;;;6.53;3.13;;;;;;;17.92;57.50;97137.56;10494036;28;20306;-24
2022/05/06 14:17:12;;;;;;;4.87;3.13;;;;;;;17.93;57.35;97145.16;10493892;28;20130;-23
2022/05/06 14:22:12;;;;;;;6.32;3.63;;;;;;;17.93;57.32;97146.88;10509095;28;20278;-23
2022/05/06 14:27:15;;;;;;;4.90;3.00;;;;;;;17.90;57.38;97149.38;10492900;28;20028;-23
2022/05/06 14:32:15;;;;;;;5.13;2.90;;;;;;;17.93;57.18;97150.22;10496484;28;20305;-24
2022/05/06 14:37:16;;;;;;;7.43;4.00;;;;;;;17.95;58.72;97153.66;10492491;28;20033;-22
2022/05/06 14:42:16;;;;;;;9.87;5.20;;;;;;;18.00;59.95;97153.69;10492507;28;20455;-24
2022/05/06 14:47:17;;;;;;;9.37;4.10;;;;;;;18.00;60.89;97146.91;10491507;28;20294;-25
2022/05/06 14:52:19;;;;;;;4.97;3.10;;;;;;;17.93;58.06;97136.72;10501514;28;20118;-23
2022/05/06 14:57:19;;;;;;;4.70;3.03;;;;;;;17.93;57.51;97140.09;10493214;28;20043;-24
2022/05/06 15:02:20;;;;;;;5.28;2.70;;;;;;;17.91;57.84;97140.94;10492312;28;20036;-22
2022/05/06 15:07:20;;;;;;;6.53;2.93;;;;;;;17.92;57.59;97142.63;10491735;28;20475;-23
2022/05/06 15:12:23;;;;;;;4.53;3.40;;;;;;;17.88;57.36;97141.75;10491891;28;20032;-20
2022/05/06 15:17:23;;;;;;;9.18;4.97;;;;;;;17.68;59.28;97107.78;10492148;28;20055;-22
2022/05/06 15:22:24;;;;;;;4.03;3.53;;;;;;;17.88;57.37;97146.81;10507186;28;20085;-22
2022/05/06 15:27:25;;;;;;;5.85;3.35;;;;;;;17.89;57.42;97145.13;10491898;28;20020;-23
2022/05/06 15:32:26;;;;;;;5.47;3.90;;;;;;;17.82;58.21;97134.09;10493440;28;20036;-22
2022/05/06 15:37:26;;;;;;;8.83;4.73;;;;;;;17.94;60.06;97151.97;10488410;28;20399;-24
2022/05/06 15:42:27;;;;;;;10.80;5.27;;;;;;;17.98;60.83;97152.84;10490203;28;20290;-23
2022/05/06 15:47:27;;;;;;;10.38;5.15;;;;;;;17.95;60.79;97150.25;10507110;28;20024;-23
2022/05/06 15:52:28;;;;;;;6.53;3.10;;;;;;;17.92;57.97;97158.66;10531566;28;20051;-24
2022/05/06 15:57:29;;;;;;;4.87;3.33;;;;;;;17.90;57.67;97154.44;10491250;28;20025;-23
2022/05/06 16:02:30;;;;;;;5.75;2.80;;;;;;;17.87;57.58;97150.19;10494777;28;20290;-23
2022/05/06 16:07:38;;;;;;;4.75;2.90;;;;;;;17.86;57.56;97145.97;10531006;28;20066;-23
2022/05/06 16:12:40;;;;;;;7.97;2.80;;;;;;;17.85;57.41;97140.88;10493015;28;20041;-24
2022/05/06 16:17:41;;;;;;;5.40;3.50;;;;;;;17.84;57.33;97140.03;10504205;28;20036;-23
2022/05/06 16:22:41;;;;;;;3.93;2.93;;;;;;;17.84;57.36;97139.19;10515019;28;20040;-24
2022/05/06 16:27:42;;;;;;;7.53;2.95;;;;;;;17.84;57.54;97142.56;10492499;28;20295;-23
2022/05/06 16:32:42;;;;;;;4.13;3.13;;;;;;;17.83;57.43;97137.50;10491759;28;20108;-22
2022/05/06 16:37:43;;;;;;;5.78;2.97;;;;;;;17.85;57.38;97138.34;10494324;28;20764;-24
2022/05/06 16:42:44;;;;;;;4.33;3.73;;;;;;;17.89;61.25;97124.84;10510603;28;20045;-26
2022/05/06 16:47:45;;;;;;;8.75;3.97;;;;;;;17.97;61.04;97136.78;10492041;28;20044;-23
2022/05/06 16:52:46;;;;;;;4.20;3.08;;;;;;;17.82;59.58;97116.38;10506540;28;20039;-20
2022/05/06 16:57:47;;;;;;;4.40;2.97;;;;;;;17.88;57.76;97135.84;10509406;28;20038;-22
2022/05/06 17:02:49;;;;;;;3.17;2.70;;;;;;;17.88;57.31;97135.84;10499003;28;20036;-24
2022/05/06 17:07:49;;;;;;;2.80;2.17;;;;;;;17.82;58.09;97120.59;10533247;28;20086;-24
2022/05/06 17:12:50;;;;;;;3.75;2.50;;;;;;;17.78;57.56;97123.94;10498878;28;20482;-25
2022/05/06 17:17:51;;;;;;;5.07;2.90;;;;;;;17.83;57.50;97137.50;10498704;28;20032;-25
2022/05/06 17:22:51;;;;;;;3.47;2.90;;;;;;;17.81;57.61;97142.53;10529539;28;20048;-23
2022/05/06 17:27:51;;;;;;;4.30;2.40;;;;;;;17.79;57.60;97135.75;10538574;28;20062;-24
2022/05/06 17:32:52;;;;;;;4.33;2.90;;;;;;;17.82;57.49;97145.94;10538685;28;20482;-24
2022/05/06 17:37:52;;;;;;;8.67;4.10;;;;;;;17.90;61.31;97144.31;10561388;28;20595;-25
2022/05/06 17:42:53;;;;;;;6.73;4.03;;;;;;;17.91;61.24;97146.84;10537804;28;20489;-23
2022/05/06 17:47:54;;;;;;;7.82;4.03;;;;;;;17.92;60.24;97152.78;10536375;28;20058;-24
2022/05/06 17:52:55;;;;;;;4.00;3.05;;;;;;;17.86;57.86;97156.09;10532535;28;20036;-24
2022/05/06 17:57:55;;;;;;;2.60;2.40;;;;;;;17.76;58.08;97156.81;10495161;28;20033;-24
2022/05/06 18:02:56;;;;;;;4.73;3.47;;;;;;;17.81;57.93;97161.94;10507896;28;20036;-23
2022/05/06 18:07:56;;;;;;;4.37;3.53;;;;;;;17.78;57.55;97154.31;10515245;28;20047;-24
2022/05/06 18:12:57;;;;;;;5.47;2.63;;;;;;;17.65;57.21;97137.31;10514260;28;20628;-23
2022/05/06 18:17:57;;;;;;;3.00;2.50;;;;;;;17.78;57.48;97169.50;10506467;28;20028;-24
2022/05/06 18:22:58;;;;;;;7.00;2.70;;;;;;;17.61;57.48;97140.66;10497994;28;20036;-25
2022/05/06 18:27:59;;;;;;;5.80;2.87;;;;;;;17.77;57.45;97173.75;10502952;28;20777;-25
2022/05/06 18:38:18;;;;;;;6.82;4.30;;;;;;;17.90;61.92;97184.84;10489947;28;20399;-25
2022/05/06 18:43:19;;;;;;;10.95;4.50;;;;;;;17.88;61.77;97182.28;10498815;28;20044;-23
2022/05/06 18:48:19;;;;;;;3.90;3.50;;;;;;;17.89;59.43;97188.19;10530430;28;20027;-23
2022/05/06 18:53:23;;;;;;;4.03;2.65;;;;;;;17.81;57.89;97200.78;10511384;28;20036;-23
2022/05/06 18:58:23;;;;;;;3.08;2.45;;;;;;;17.79;57.77;97199.06;10509567;28;20082;-23
2022/05/06 19:03:23;;;;;;;3.60;2.73;;;;;;;17.77;57.84;97205.81;10504631;28;20113;-23
2022/05/06 19:08:24;;;;;;;2.67;2.17;;;;;;;17.77;57.45;97215.94;10506524;28;20303;-23
2022/05/06 19:13:24;;;;;;;4.20;2.27;;;;;;;17.77;57.26;97221.00;10500127;28;20040;-23
2022/05/06 19:18:25;;;;;;;3.17;2.63;;;;;;;17.77;57.49;97228.59;10495835;28;20033;-25
2022/05/06 19:28:44;;;;;;;3.15;2.50;;;;;;;17.80;57.56;97226.09;10495462;28;20032;-26
2022/05/06 19:33:44;;;;;;;2.30;2.03;;;;;;;17.82;57.50;97237.13;10491106;28;20046;-25
2022/05/06 19:38:44;;;;;;;7.13;4.10;;;;;;;17.91;61.67;97232.13;10491575;28;20028;-25
2022/05/06 19:43:45;;;;;;;10.90;3.27;;;;;;;17.89;61.45;97228.72;10491215;28;20498;-25
2022/05/06 19:48:45;;;;;;;2.80;2.43;;;;;;;17.91;58.34;97232.13;10490760;28;20299;-26
2022/05/06 19:53:45;;;;;;;3.00;2.30;;;;;;;17.88;57.29;97238.00;10501998;28;20039;-25
2022/05/06 19:58:46;;;;;;;4.90;2.50;;;;;;;17.87;57.46;97246.44;10532973;28;20109;-25
2022/05/06 20:03:46;;;;;;;5.60;2.73;;;;;;;17.88;57.37;97254.88;10518416;28;20122;-23
2022/05/06 20:08:47;;;;;;;3.53;2.28;;;;;;;17.85;57.49;97252.34;10491478;28;20533;-25
2022/05/06 20:13:47;;;;;;;3.50;2.43;;;;;;;17.87;57.28;97253.19;10490749;28;20040;-24
2022/05/06 20:18:47;;;;;;;7.03;2.90;;;;;;;17.82;58.35;97257.38;10514635;28;20032;-24
2022/05/06 20:23:48;;;;;;;4.00;2.43;;;;;;;17.85;57.39;97262.47;10510835;28;20115;-24
2022/05/06 20:28:48;;;;;;;2.50;2.30;;;;;;;17.87;57.38;97265.84;10494460;28;20045;-25
2022/05/06 20:33:49;;;;;;;8.13;3.93;;;;;;;17.90;61.27;97265.91;10517593;28;20040;-24
2022/05/06 20:38:49;;;;;;;6.20;4.22;;;;;;;17.89;60.87;97252.38;10493885;28;20033;-24
2022/05/06 20:43:50;;;;;;;4.13;2.43;;;;;;;17.94;58.18;97258.34;10493534;28;20033;-23
2022/05/06 20:48:50;;;;;;;3.23;2.70;;;;;;;17.92;57.71;97254.94;10511509;28;20657;-25
2022/05/06 20:53:51;;;;;;;3.60;2.70;;;;;;;17.92;57.39;97254.09;10503103;28;20309;-24
2022/05/06 21:04:11;;;;;;;3.60;2.38;;;;;;;17.89;57.44;97264.19;10499464;28;20063;-25
2022/05/06 21:14:31;;;;;;;4.00;2.53;;;;;;;17.87;57.43;97258.25;10519482;28;20139;-23
2022/05/06 21:19:31;;;;;;;4.43;2.10;;;;;;;17.81;57.41;97246.38;10518287;28;20057;-24
2022/05/06 21:24:32;;;;;;;2.50;2.00;;;;;;;17.85;57.50;97257.41;10536148;28;20036;-23
2022/05/06 21:29:32;;;;;;;3.20;2.73;;;;;;;17.85;57.60;97248.13;10495999;28;20475;-24
2022/05/06 21:34:33;;;;;;;6.00;3.33;;;;;;;17.88;61.36;97248.16;10495915;28;20302;-25
2022/05/06 21:39:33;;;;;;;6.03;3.40;;;;;;;17.90;61.63;97240.56;10528991;28;20039;-25
2022/05/06 21:44:33;;;;;;;7.50;3.33;;;;;;;17.90;60.92;97245.63;10501827;28;20033;-25
2022/05/06 21:49:34;;;;;;;6.60;2.90;;;;;;;17.79;57.66;97227.78;10491057;28;20043;-23
2022/05/06 21:54:37;;;;;;;3.80;2.20;;;;;;;17.85;57.57;97242.19;10496053;28;20040;-25
2022/05/06 21:59:40;;;;;;;2.97;2.22;;;;;;;17.82;57.68;97237.94;10491239;28;20745;-24
2022/05/06 22:04:41;;;;;;;3.75;2.55;;;;;;;17.82;57.60;97242.19;10493535;28;20131;-24
2022/05/06 22:09:42;;;;;;;2.83;2.20;;;;;;;17.80;57.79;97244.69;10494295;28;20488;-24
2022/05/06 22:14:42;;;;;;;3.53;2.30;;;;;;;17.79;57.68;97248.06;10494644;28;20119;-24
2022/05/06 22:19:43;;;;;;;3.58;2.80;;;;;;;17.80;57.62;97241.28;10505901;28;20706;-25
2022/05/06 22:24:45;;;;;;;3.63;2.42;;;;;;;17.78;57.52;97235.38;10545496;28;20063;-26
2022/05/06 22:29:45;;;;;;;3.42;2.50;;;;;;;17.79;57.36;97232.00;10536968;28;20039;-25
2022/05/06 22:34:46;;;;;;;5.55;3.60;;;;;;;17.86;61.95;97233.75;10503969;28;20410;-25
2022/05/06 22:39:49;;;;;;;6.83;3.40;;;;;;;17.89;61.80;97233.78;10513110;28;20321;-25
2022/05/06 22:50:08;;;;;;;2.55;2.20;;;;;;;17.76;57.86;97199.03;10498138;28;20028;-24
2022/05/06 22:55:09;;;;;;;2.33;2.13;;;;;;;17.80;57.97;97223.56;10493116;28;20093;-24
2022/05/06 23:00:10;;;;;;;3.55;2.30;;;;;;;17.81;57.79;97230.31;10493132;28;20040;-23
2022/05/06 23:05:12;;;;;;;5.28;2.20;;;;;;;17.79;57.62;97216.78;10492606;28;20483;-24
2022/05/06 23:10:13;;;;;;;4.10;2.53;;;;;;;17.80;57.55;97205.81;10515384;28;20040;-25
2022/05/06 23:15:13;;;;;;;3.83;2.30;;;;;;;17.77;57.54;97194.00;10533881;28;20048;-25
2022/05/06 23:20:13;;;;;;;3.00;2.30;;;;;;;17.75;57.57;97194.81;10504917;28;20033;-25
2022/05/06 23:25:14;;;;;;;3.27;1.90;;;;;;;17.74;57.70;97200.72;10523965;28;20655;-25
2022/05/06 23:30:15;;;;;;;2.95;2.42;;;;;;;17.77;57.38;97196.53;10491930;28;20340;-25
2022/05/06 23:35:15;;;;;;;6.60;3.27;;;;;;;17.82;61.51;97196.59;10491739;28;20044;-24
2022/05/06 23:40:15;;;;;;;8.73;3.30;;;;;;;17.85;62.11;97201.66;10492116;28;20630;-24
2022/05/06 23:45:16;;;;;;;4.47;2.50;;;;;;;17.77;61.66;97190.63;10491860;28;20040;-23
2022/05/06 23:50:16;;;;;;;3.00;2.27;;;;;;;17.84;58.13;97189.84;10491360;28;20328;-24
2022/05/06 23:55:16;;;;;;;4.10;2.40;;;;;;;17.82;57.82;97189.00;10490967;28;20566;-23
